Terminal Aerodrome Forecast
Issued by NWS Cleveland, OH

Home | Current Version | Previous Version | Graphics & Text | Print | Product List | Glossary Off
Versions: 1 2 3 4 5 6 7 8 9 10 11 12 13 14

000
FTUS41 KCLE 261730
TAFERI
TAF
KERI 261730Z 2618/2718 28006KT P6SM SCT035 BKN060
     FM262300 19010KT P6SM SCT035
     FM270200 19014G22KT P6SM -SHRA BKN050 OVC150
     FM270600 20015G22KT P6SM SCT040
     FM271300 21013KT P6SM SCT015 BKN035=

USA.gov is the U.S. government's official web portal to all federal, state and local government web resources and services.